NY Terminal Aviation Weather Discussion (AFD)
HIGH PRESSURE BUILDS IN THROUGH FRIDAY. MAINLY VFR CONDITIONS ARE
EXPECTED DURING THE TAF PERIOD. THERE ARE SOME INDICATIONS OF SOME
POSSIBLE MVFR STRATUS FRIDAY BUT THERE IS MUCH UNCERTAINTY...SO
KEPT COVERAGE TO FEW-SCT.

VARIABLE DIRECTION TO WINDS WHICH ARE LESS THAN 10 KT. THESE
SHOULD ALL TURN N/NE AND THEN INCREASE WHILE GAINING MORE OF AN
EASTWARD COMPONENT OVERNIGHT AND INTO FRIDAY. WIND SPEEDS WILL
INCREASE TO 10-15 KT WITH GUSTS UP TO NEAR 20 KT.

FOR OVERNIGHT AND FRIDAY...GUST START AND END TIME COULD VARY BY
1-3 HOURS.

*************************************************************************************
KJFK Terminal Weather:

FTUS80 KJFK 190551
KJFK 190548Z 1906/2012 03012G17KT P6SM SCT070
     FM191500 04013KT P6SM FEW025 SCT050
     FM191800 08012KT P6SM SCT030
     FM192200 12011KT P6SM SCT035
     FM200600 14008KT P6SM SCT030
KJFK Forecaster Comments Not Available at This Time
*************************************************************************************
KLGA Terminal Weather:
FTUS80 KLGA 190551
KLGA 190548Z 1906/2006 03012G18KT P6SM SCT070
     FM191500 05012KT P6SM FEW025 SCT050
     FM191900 07011KT P6SM SCT030
     FM192100 11010KT P6SM SCT035
     FM200300 13010KT P6SM SCT030
KLGA Forecaster Comments Not Available at This Time
*************************************************************************************
KEWR Terminal Weather:
FTUS80 KEWR 190551
KEWR 190548Z 1906/2012 02012KT P6SM SCT070
     FM191500 05010KT P6SM FEW025 SCT050
     FM191900 09010KT P6SM SCT030
     FM192100 12008KT P6SM SCT035
     FM200600 12005KT P6SM SCT030
KEWR Forecaster Comments Not Available at This Time
*************************************************************************************
KTEB Terminal Weather:
FTUS80 KTEB 190551 RRA
KTEB 190548Z 1906/2006 01009KT P6SM SCT070
     FM191400 05009KT P6SM FEW025 SCT050
     FM191800 10008KT P6SM SCT030
     FM192100 13006KT P6SM SCT035
KTEB Forecaster Comments Not Available at This Time
*************************************************************************************
KHPN Terminal Weather:
FTUS80 KHPN 190551
KHPN 190548Z 1906/2006 36010KT P6SM SCT070
     FM191500 05009KT P6SM FEW030 SCT050
     FM191800 10008KT P6SM FEW035
     FM192100 13007KT P6SM SCT035
     FM200300 12005KT P6SM SCT030 AMD NOT SKED
KHPN Forecaster Comments Not Available at This Time
*************************************************************************************
KISP Terminal Weather:
FTUS80 KISP 190551
KISP 190548Z 1906/2006 01010KT P6SM SCT070
     FM191500 05011KT P6SM FEW025 SCT050
     FM191800 07010KT P6SM SCT030
     FM192100 11009KT P6SM SCT030
     FM200300 13007KT P6SM SCT030
KISP Forecaster Comments Not Available at This Time

*************************************************************************************
5 Day General Outlook:

.OUTLOOK FOR 18Z FRIDAY THROUGH TUESDAY...
.FRIDAY-SUNDAY...VFR. 
.SUNDAY NIGHT-MONDAY...CHANCE OF MVFR OR BELOW WITH SCATTERED
SHOWERS.
.MONDAY NIGHT-TUESDAY...VFR.


Click the Print Icon print icon below to print the briefing sheet